Apple River, IL (61001)

9:54 AM CDT on September 19, 2014 (GMT -0500)
KILSTOCK2 | Change Station
CLOSE
Current Station
Personal Weather Station
Location: Stockton, IL
Elevation: 959 ft
Nearby Weather Stations

Elev 959 ft 42.40 °N, 89.99 °W | Updated 4 minutes ago

Clear
Clear
60.7 °F
Feels Like 60.7 °F
N
10.0
Wind Variable Wind from South
Gusts 13.0 mph

Today
High -- | Low -- °F
--% Chance of Precip.
Yesterday
High -- | Low -- °F
Precip. -- in
6:44 AM 7:03 PM
Waning Crescent, 19% visible
Pressure 30.10 in
Visibility 10.0 miles
Clouds Clear
Dew Point 57 °F
Humidity 88%
Rainfall 0.01 in
Snow Depth Not available.
UV 3 out of 12
Pollen 4.50 out of 12
Air Quality Not available.
Flu Activity Not available.
METAR KPVB 191435Z AUTO 17009KT 10SM CLR 15/12 A3010 RMK AO1 T01460124

More Conditions Fewer Conditions

Pressure 30.10 in
Visibility 10.0 miles
Clouds Clear
Dew Point 57 °F
Humidity 88%
Rainfall 0.01 in
Snow Depth Not available.
UV 3 out of 12
Pollen 4.50 out of 12
Air Quality Not available.
Flu Activity Not available.
METAR KPVB 191435Z AUTO 17009KT 10SM CLR 15/12 A3010 RMK AO1 T01460124

More Conditions Fewer Conditions

10-Day Weather Forecast

Almanac

Astronomy

Sep. 19, 2014 Rise Set
Actual Time 6:44 AM CDT 7:03 PM CDT
Civil Twilight 6:16 AM CDT 7:31 PM CDT
Nautical Twilight 5:43 AM CDT 8:04 PM CDT
Astronomical Twilight 5:09 AM CDT 8:37 PM CDT
Moon 2:25 AM CDT 4:35 PM CDT
Length of Visible Light 13h 14m
Length of Day
12h 18m
Tomorrow will be 2m 51s shorter.
Waning Crescent, 19% of the Moon is Illuminated
Today
Waning Crescent
Sep 24
New
Oct 1
First Quarter
Oct 8
Full
Oct 15
Last Quarter

Today's Extremes

State Highs State Lows

Community

WunderPhotos

Upload Photos

1,754,630 photos uploaded!

WunderBlogs® & News

Nearby

Snow Depth

Station Depth Elevation
No new snow has been reported.

Earthquake Activity

City Distance Mag. Time & Date
No recent earthquake activity has been reported nearby.
Minimum magnitude displayed is 2.5.

Coastal Water Temperatures

Place Temperature
No Stations Reporting

Nearby Weather Stations